This is the latest recevied weather packets stored in our database for station/object KC5CAM-13. If no packets are shown the sender has not sent any weather packets the latest 10 day(s).
| Time | Temp. | Humidity | Pressure | Rain* | Wind** | Luminosity | Snow |
|---|---|---|---|---|---|---|---|
| 1777570915 | 16.67° C | 84% | 1016 hPa | 0 mm | - | 50 W/m² | - |
| 1777570611 | 16.67° C | 84% | 1016.4 hPa | 0 mm | - | 38 W/m² | - |
| 1777570309 | 16.67° C | 84% | 1016 hPa | 0 mm | - | 52 W/m² | - |
| 1777570004 | 16.67° C | 84% | 1016.2 hPa | 0 mm | - | 52 W/m² | - |
| 1777569700 | 16.67° C | 84% | 1016.2 hPa | 0 mm | - | 33 W/m² | - |
| 1777569396 | 16.67° C | 83% | 1016.7 hPa | 0 mm | - | 25 W/m² | - |
| 1777569093 | 17.22° C | 83% | 1016.7 hPa | 0 mm | - | 27 W/m² | - |
| 1777568789 | 17.22° C | 83% | 1016.3 hPa | 0 mm | - | 37 W/m² | - |
| 1777568487 | 17.22° C | 82% | 1016.3 hPa | 0 mm | - | 60 W/m² | - |
| 1777568183 | 17.22° C | 82% | 1016.1 hPa | 0 mm | - | 87 W/m² | - |
| 1777567881 | 17.22° C | 82% | 1016.3 hPa | 0 mm | - | 70 W/m² | - |
| 1777567576 | 17.22° C | 82% | 1016.7 hPa | 0 mm | - | 35 W/m² | - |
| 1777567274 | 17.22° C | 82% | 1015.6 hPa | 0 mm | - | 116 W/m² | - |
| 1777566973 | 17.22° C | 83% | 1015.5 hPa | 0 mm | - | 125 W/m² | - |
| 1777566670 | 17.22° C | 83% | 1016 hPa | 0 mm | - | 142 W/m² | - |
| 1777566367 | 17.22° C | 83% | 1016.2 hPa | 0 mm | - | 87 W/m² | - |
| 1777566064 | 17.22° C | 84% | 1016.7 hPa | 0 mm | - | 95 W/m² | - |
| 1777565759 | 17.22° C | 83% | 1017 hPa | 0 mm | - | 65 W/m² | - |
| 1777565456 | 17.22° C | 83% | 1016.8 hPa | 0 mm | - | 64 W/m² | - |
| 1777565152 | 17.22° C | 84% | 1017.1 hPa | 0 mm | - | 112 W/m² | - |
| 1777564849 | 17.22° C | 84% | 1017.1 hPa | 0 mm | - | 111 W/m² | - |
| 1777564544 | 17.22° C | 84% | 1017.5 hPa | 0 mm | - | 69 W/m² | - |
| 1777564239 | 16.67° C | 85% | 1017.4 hPa | 0 mm | - | 58 W/m² | - |
| 1777563936 | 16.67° C | 85% | 1017.6 hPa | 0 mm | - | 58 W/m² | - |
| 1777563633 | 16.67° C | 85% | 1017.8 hPa | 0 mm | - | 48 W/m² | - |
* Rain latest hour (hover to see other rain measurements)
** Current wind speed in m/s (hover to see current wind gust speed)